Aviation Digital Data Service (ADDS)

Output produced by METARs form (2226 UTC 25 September 2016)
found at http://aviationweather.gov/adds/metars/
 
KPHL 252133Z 2522/2624 32005KT P6SM SCT250 
     FM260000 29004KT P6SM FEW250 
     FM260500 VRB03KT P6SM SKC 
     FM261400 17006KT P6SM SCT250 
     FM262000 19009G18KT P6SM BKN050